Time;durP1;ratioP1;P1;durP2;ratioP2;P2;SDS_P1;SDS_P2;PMS_P1;PMS_P2;Temp;Humidity;BMP_temperature;BMP_pressure;BME280_temperature;BME280_humidity;BME280_pressure;Samples;Min_cycle;Max_cycle;Signal;HPM_P1;HPM_P2
2021/09/29 00:02:58;;;;;;;;;;;14.50;99.90;;;;;;8391450;28;19935;-73
2021/09/29 00:07:00;;;;;;;7.47;3.42;;;14.50;99.90;;;;;;8391935;28;19927;-73
2021/09/29 00:11:02;;;;;;;11.18;3.88;;;14.50;99.90;;;;;;8390596;28;20380;-73
2021/09/29 00:15:10;;;;;;;6.38;3.55;;;14.40;99.90;;;;;;8392460;28;20156;-73
2021/09/29 00:19:12;;;;;;;9.13;4.13;;;14.40;99.90;;;;;;8380287;28;20071;-73
2021/09/29 00:23:14;;;;;;;10.73;4.22;;;14.40;99.90;;;;;;8384121;28;20056;-73
2021/09/29 00:27:15;;;;;;;10.65;4.05;;;14.40;99.90;;;;;;8393887;28;20056;-73
2021/09/29 00:31:27;;;;;;;;;;;14.30;99.90;;;;;;8391524;28;19920;-72
2021/09/29 00:35:30;;;;;;;10.35;4.50;;;14.40;99.90;;;;;;8386123;28;19970;-72
2021/09/29 00:39:31;;;;;;;;;;;14.30;99.90;;;;;;8374902;28;20769;-73
2021/09/29 00:43:33;;;;;;;;;;;14.30;99.90;;;;;;8393640;28;19920;-73
2021/09/29 00:47:41;;;;;;;;;;;14.30;99.90;;;;;;8391268;28;20261;-73
2021/09/29 00:51:42;;;;;;;;;;;14.20;99.90;;;;;;8387962;28;19985;-72
2021/09/29 00:55:44;;;;;;;;;;;14.20;99.90;;;;;;8394076;28;19927;-72
2021/09/29 00:59:46;;;;;;;;;;;14.20;99.90;;;;;;8371081;28;20405;-72
2021/09/29 01:03:48;;;;;;;;;;;14.20;99.90;;;;;;8390317;28;19921;-72
2021/09/29 01:08:25;;;;;;;;;;;14.10;99.90;;;;;;8390864;28;20335;-73
2021/09/29 01:12:50;;;;;;;;;;;14.10;99.90;;;;;;8317321;28;19928;-74
2021/09/29 01:16:53;;;;;;;;;;;14.10;99.90;;;;;;8383239;28;19966;-73
2021/09/29 01:20:57;;;;;;;;;;;14.10;99.90;;;;;;8399238;28;19927;-73
2021/09/29 01:25:02;;;;;;;;;;;14.10;99.90;;;;;;8386133;28;20256;-73
2021/09/29 01:29:07;;;;;;;7.68;3.65;;;14.10;99.90;;;;;;8388817;28;19932;-73
2021/09/29 01:33:09;;;;;;;10.35;4.25;;;14.10;99.90;;;;;;8388101;28;20090;-73
2021/09/29 01:37:11;;;;;;;8.68;3.83;;;14.10;99.90;;;;;;8373183;28;20241;-73
2021/09/29 01:41:13;;;;;;;7.05;3.97;;;14.00;99.90;;;;;;8389681;28;20105;-72
2021/09/29 01:45:14;;;;;;;11.23;4.55;;;14.00;99.90;;;;;;8388069;28;20519;-73
2021/09/29 01:49:26;;;;;;;11.65;4.57;;;14.00;99.90;;;;;;8390948;28;20044;-73
2021/09/29 01:53:32;;;;;;;7.90;4.07;;;14.00;99.90;;;;;;8387321;28;20037;-73
2021/09/29 01:57:36;;;;;;;9.82;4.20;;;14.00;99.90;;;;;;8374397;28;20052;-73
2021/09/29 02:01:40;;;;;;;10.32;3.92;;;13.90;99.90;;;;;;8386591;28;20148;-72
2021/09/29 02:05:42;;;;;;;10.88;4.35;;;13.90;99.90;;;;;;8388236;28;20464;-73
2021/09/29 02:09:44;;;;;;;7.20;3.78;;;13.90;99.90;;;;;;8390001;28;20053;-73
2021/09/29 02:13:45;;;;;;;6.50;3.60;;;13.90;99.90;;;;;;8373074;28;20051;-72
2021/09/29 02:17:48;;;;;;;7.95;4.10;;;13.90;99.90;;;;;;8389511;28;20484;-73
2021/09/29 02:21:50;;;;;;;11.02;4.13;;;13.90;99.90;;;;;;8378473;28;20048;-73
2021/09/29 02:25:53;;;;;;;8.20;4.00;;;13.90;99.90;;;;;;8372338;28;20102;-73
2021/09/29 02:29:54;;;;;;;;;;;13.90;99.90;;;;;;8385811;28;19931;-72
2021/09/29 02:33:56;;;;;;;;;;;13.90;99.90;;;;;;8389098;28;19982;-73
2021/09/29 02:37:58;;;;;;;;;;;13.90;99.90;;;;;;8379982;28;19928;-72
2021/09/29 02:41:59;;;;;;;;;;;13.90;99.90;;;;;;8398894;28;20392;-72
2021/09/29 02:46:02;;;;;;;;;;;13.90;99.90;;;;;;8386308;28;20250;-72
2021/09/29 02:50:04;;;;;;;;;;;13.90;99.90;;;;;;8404007;28;19943;-73
2021/09/29 02:54:06;;;;;;;;;;;13.80;99.90;;;;;;8390635;28;19924;-71
2021/09/29 02:58:09;;;;;;;;;;;13.90;99.90;;;;;;8385853;28;20620;-72
2021/09/29 03:02:11;;;;;;;;;;;13.90;99.90;;;;;;8408968;28;19928;-72
2021/09/29 03:06:13;;;;;;;;;;;13.90;99.90;;;;;;8384409;28;19967;-72
2021/09/29 03:10:15;;;;;;;;;;;13.80;99.90;;;;;;8386628;28;19920;-72
2021/09/29 03:14:16;;;;;;;;;;;13.80;99.90;;;;;;8389073;28;20035;-72
2021/09/29 03:18:18;;;;;;;;;;;13.70;99.90;;;;;;8386060;28;19920;-72
2021/09/29 03:22:20;;;;;;;;;;;13.70;99.90;;;;;;8381023;28;19989;-72
2021/09/29 03:26:21;;;;;;;;;;;13.60;99.90;;;;;;8385161;28;19939;-73
2021/09/29 03:30:23;;;;;;;;;;;13.60;99.90;;;;;;8372131;28;19927;-73
2021/09/29 03:34:25;;;;;;;;;;;13.60;99.90;;;;;;8388912;28;19920;-73
2021/09/29 03:38:26;;;;;;;;;;;13.60;99.90;;;;;;8385961;28;19924;-73
2021/09/29 03:42:28;;;;;;;;;;;13.60;99.90;;;;;;8388133;28;19924;-72
2021/09/29 03:46:30;;;;;;;;;;;13.60;99.90;;;;;;8386394;28;19920;-72
2021/09/29 03:50:31;;;;;;;;;;;13.50;99.90;;;;;;8388689;28;20690;-73
2021/09/29 03:54:33;;;;;;;;;;;13.50;99.90;;;;;;8388037;28;19920;-73
2021/09/29 03:58:35;;;;;;;;;;;13.50;99.90;;;;;;8390431;28;19928;-73
2021/09/29 04:02:37;;;;;;;;;;;13.40;99.90;;;;;;8383957;28;20479;-72
2021/09/29 04:06:39;;;;;;;9.73;3.95;;;13.40;99.90;;;;;;8379030;28;20595;-73
2021/09/29 04:10:40;;;;;;;8.80;3.15;;;13.40;99.90;;;;;;8387697;28;20040;-72
2021/09/29 04:14:42;;;;;;;6.10;3.15;;;13.40;99.90;;;;;;8388179;28;20127;-73
2021/09/29 04:18:44;;;;;;;6.30;3.20;;;13.40;99.90;;;;;;8389139;28;20045;-73
2021/09/29 04:22:46;;;;;;;9.10;3.65;;;13.30;99.90;;;;;;8385474;28;20052;-72
2021/09/29 04:26:48;;;;;;;7.97;3.60;;;13.30;99.90;;;;;;8393094;28;20047;-73
2021/09/29 04:30:49;;;;;;;8.25;3.70;;;13.30;99.90;;;;;;8371339;28;20045;-73
2021/09/29 04:34:51;;;;;;;9.15;3.70;;;13.30;99.90;;;;;;8394392;28;20699;-73
2021/09/29 04:38:53;;;;;;;5.82;3.30;;;13.30;99.90;;;;;;8386886;28;20045;-72
2021/09/29 04:42:55;;;;;;;5.70;3.03;;;13.30;99.90;;;;;;8375545;28;20483;-73
2021/09/29 04:46:57;;;;;;;8.00;3.25;;;13.30;99.90;;;;;;8370920;28;20056;-72
2021/09/29 04:50:59;;;;;;;8.07;3.40;;;13.30;99.90;;;;;;8375603;28;20492;-72
2021/09/29 04:55:01;;;;;;;7.43;2.83;;;13.30;99.90;;;;;;8393070;28;20044;-73
2021/09/29 04:59:02;;;;;;;8.27;2.95;;;13.30;99.90;;;;;;8391068;28;20402;-72
2021/09/29 05:03:06;;;;;;;8.20;2.88;;;13.30;99.90;;;;;;8386080;28;20438;-73
2021/09/29 05:07:14;;;;;;;;;;;13.30;99.90;;;;;;8387390;28;19977;-72
2021/09/29 05:11:18;;;;;;;9.20;3.30;;;13.30;99.90;;;;;;8386149;28;19950;-72
2021/09/29 05:15:20;;;;;;;;;;;13.30;99.90;;;;;;8395116;28;20052;-72
2021/09/29 05:19:22;;;;;;;7.63;3.22;;;13.30;99.90;;;;;;8386040;28;20408;-73
2021/09/29 05:23:24;;;;;;;7.95;4.68;;;13.30;99.90;;;;;;8390463;28;20040;-73
2021/09/29 05:27:26;;;;;;;5.28;2.88;;;13.30;99.90;;;;;;8371291;28;20055;-73
2021/09/29 05:31:27;;;;;;;6.85;3.20;;;13.30;99.90;;;;;;8391541;28;20052;-73
2021/09/29 05:35:30;;;;;;;5.45;2.72;;;13.30;99.90;;;;;;8389026;28;20141;-73
2021/09/29 05:39:31;;;;;;;4.55;2.50;;;13.30;99.90;;;;;;8383975;28;20048;-73
2021/09/29 05:43:33;;;;;;;5.25;2.15;;;13.30;99.90;;;;;;8388450;28;20067;-73
2021/09/29 05:47:35;;;;;;;6.33;2.87;;;13.30;99.90;;;;;;8378873;28;19940;-72
2021/09/29 05:51:37;;;;;;;7.85;2.78;;;13.30;99.90;;;;;;8383967;28;20044;-73
2021/09/29 05:55:39;;;;;;;5.63;2.58;;;13.30;99.90;;;;;;8389709;28;20051;-72
2021/09/29 05:59:40;;;;;;;5.97;2.80;;;13.30;99.90;;;;;;8384313;28;20045;-72
2021/09/29 06:03:42;;;;;;;6.07;3.23;;;13.30;99.90;;;;;;8391295;28;20063;-73
2021/09/29 06:07:44;;;;;;;7.43;2.97;;;13.20;99.90;;;;;;8371238;28;21751;-73
2021/09/29 06:11:45;;;;;;;6.18;3.08;;;13.30;99.90;;;;;;8387985;28;20106;-73
2021/09/29 06:15:50;;;;;;;7.90;3.15;;;13.20;99.90;;;;;;8372635;28;20045;-73
2021/09/29 06:19:54;;;;;;;5.47;2.30;;;13.30;99.90;;;;;;8383513;28;20049;-72
2021/09/29 06:23:55;;;;;;;6.13;2.77;;;13.30;99.90;;;;;;8378110;28;20051;-72
2021/09/29 06:27:57;;;;;;;5.30;2.33;;;13.30;99.90;;;;;;8383407;28;20049;-73
2021/09/29 06:31:59;;;;;;;7.53;3.40;;;13.30;99.90;;;;;;8389266;28;20055;-72
2021/09/29 06:36:01;;;;;;;;;;;13.30;99.90;;;;;;8370820;28;20059;-72
2021/09/29 06:40:03;;;;;;;;;;;13.40;99.90;;;;;;8388119;28;20281;-72
2021/09/29 06:44:05;;;;;;;;;;;13.30;99.90;;;;;;8371269;28;19928;-72
2021/09/29 06:48:08;;;;;;;;;;;13.40;99.90;;;;;;8385509;28;19924;-72
2021/09/29 06:52:09;;;;;;;;;;;13.40;99.90;;;;;;8404276;28;19932;-72
2021/09/29 06:56:11;;;;;;;;;;;13.40;99.90;;;;;;8402812;28;19932;-72
2021/09/29 07:00:15;;;;;;;;;;;13.40;99.90;;;;;;8387132;28;19925;-72
2021/09/29 07:04:16;;;;;;;;;;;13.40;99.90;;;;;;8385190;28;19928;-72
2021/09/29 07:08:18;;;;;;;;;;;13.40;99.90;;;;;;8384185;28;19929;-72
2021/09/29 07:12:19;;;;;;;;;;;13.40;99.90;;;;;;8391028;28;19924;-72
2021/09/29 07:16:25;;;;;;;;;;;13.40;99.90;;;;;;8383726;28;19924;-73
2021/09/29 07:20:27;;;;;;;;;;;13.40;99.90;;;;;;8384954;28;19932;-72
2021/09/29 07:24:29;;;;;;;;;;;13.40;99.90;;;;;;8355945;28;19929;-72
2021/09/29 07:28:31;;;;;;;;;;;13.30;99.90;;;;;;8361214;28;19925;-72
2021/09/29 07:32:33;;;;;;;;;;;13.30;99.90;;;;;;8361365;28;19928;-72
2021/09/29 07:36:38;;;;;;;;;;;13.30;99.90;;;;;;8361782;28;19924;-72
2021/09/29 07:40:41;;;;;;;;;;;13.30;99.90;;;;;;8361554;28;19935;-72
2021/09/29 07:44:42;;;;;;;;;;;13.30;99.90;;;;;;8365260;28;20372;-72
2021/09/29 07:48:44;;;;;;;;;;;13.30;99.90;;;;;;8372120;28;20732;-72
2021/09/29 07:52:46;;;;;;;;;;;13.30;99.90;;;;;;8374815;28;19936;-73
2021/09/29 07:56:48;;;;;;;;;;;13.30;99.90;;;;;;8372546;28;20426;-72
2021/09/29 08:00:49;;;;;;;;;;;13.30;99.90;;;;;;8362349;28;19925;-72
2021/09/29 08:04:51;;;;;;;;;;;13.30;99.90;;;;;;8365914;28;20245;-72
2021/09/29 08:08:53;;;;;;;;;;;13.20;99.90;;;;;;8367319;28;19985;-72
2021/09/29 08:12:56;;;;;;;7.43;4.28;;;13.20;99.90;;;;;;8370552;28;20314;-73
2021/09/29 08:16:58;;;;;;;;;;;13.20;99.90;;;;;;8368279;28;20508;-72
2021/09/29 08:21:03;;;;;;;;;;;13.20;99.90;;;;;;8365809;28;19940;-72
2021/09/29 08:41:42;;;;;;;;;;;13.20;99.90;;;;;;8371263;28;20210;-72
2021/09/29 08:45:56;;;;;;;;;;;13.20;99.90;;;;;;8366477;28;24891;-72
2021/09/29 08:54:25;;;;;;;;;;;13.00;99.90;;;;;;8369211;28;19932;-72
2021/09/29 09:19:55;;;;;;;;;;;12.90;99.90;;;;;;8364642;28;20382;-72
2021/09/29 09:23:58;;;;;;;;;;;12.80;99.90;;;;;;8367396;28;19921;-72
2021/09/29 09:28:00;;;;;;;;;;;12.80;99.90;;;;;;8370219;28;19998;-72
2021/09/29 09:32:06;;;;;;;;;;;12.80;99.90;;;;;;8368220;28;20399;-72
2021/09/29 09:36:08;;;;;;;;;;;12.80;99.90;;;;;;8372253;28;19928;-72
2021/09/29 09:40:11;;;;;;;;;;;12.70;99.90;;;;;;8360742;28;19973;-72
2021/09/29 09:44:20;;;;;;;;;;;12.70;99.90;;;;;;8369771;28;20335;-72
2021/09/29 09:48:22;;;;;;;;;;;12.70;99.90;;;;;;8370271;28;19952;-72
2021/09/29 09:52:30;;;;;;;;;;;12.70;99.90;;;;;;8368025;28;19921;-72
2021/09/29 09:56:32;;;;;;;;;;;12.70;99.90;;;;;;8366880;28;19921;-72
2021/09/29 10:00:36;;;;;;;;;;;12.70;99.90;;;;;;8367793;28;20311;-72
2021/09/29 10:04:38;;;;;;;;;;;12.60;99.90;;;;;;8363375;28;19932;-73
2021/09/29 10:08:43;;;;;;;;;;;12.60;99.90;;;;;;8368307;28;19920;-72
2021/09/29 10:30:28;;;;;;;;;;;12.50;99.90;;;;;;8368407;28;20278;-72
2021/09/29 10:34:38;;;;;;;;;;;12.40;99.90;;;;;;8365216;28;19943;-72
2021/09/29 10:43:28;;;;;;;;;;;12.20;99.90;;;;;;8363600;28;19920;-73
2021/09/29 10:47:53;;;;;;;;;;;12.10;99.90;;;;;;8363159;28;20317;-72
2021/09/29 11:05:28;;;;;;;;;;;12.00;99.90;;;;;;8361610;28;20248;-72
2021/09/29 11:10:04;;;;;;;;;;;12.00;99.90;;;;;;8361075;28;19928;-72
2021/09/29 11:27:36;;;;;;;;;;;12.20;99.90;;;;;;8374660;28;19929;-72
2021/09/29 11:31:45;;;;;;;;;;;12.30;99.90;;;;;;8370327;28;19928;-72
2021/09/29 11:36:03;;;;;;;;;;;12.40;99.90;;;;;;8374250;28;19961;-73
2021/09/29 11:49:24;;;;;;;;;;;12.70;99.90;;;;;;8370075;28;19928;-72
2021/09/29 12:11:11;;;;;;;;;;;13.40;99.90;;;;;;8367514;28;19924;-74
2021/09/29 12:15:17;;;;;;;;;;;13.60;99.90;;;;;;8366356;28;19964;-73
2021/09/29 12:19:25;;;;;;;;;;;13.70;99.90;;;;;;8366197;28;19936;-73
2021/09/29 12:23:26;;;;;;;;;;;13.80;99.90;;;;;;8369152;28;20306;-73
2021/09/29 12:27:54;;;;;;;;;;;13.90;99.90;;;;;;8382976;28;19935;-73
2021/09/29 12:32:08;;;;;;;;;;;13.90;99.90;;;;;;8364352;28;19948;-73
2021/09/29 12:36:14;;;;;;;;;;;13.90;99.90;;;;;;8369135;28;19930;-73
2021/09/29 12:40:16;;;;;;;;;;;14.00;99.90;;;;;;8370995;28;20438;-72
2021/09/29 12:44:18;;;;;;;;;;;14.00;99.90;;;;;;8370677;28;19966;-73
2021/09/29 12:48:23;;;;;;;;;;;14.10;99.90;;;;;;8371226;28;19921;-72
2021/09/29 12:52:29;;;;;;;;;;;14.20;99.90;;;;;;8382760;28;19924;-73
2021/09/29 12:56:30;;;;;;;;;;;14.30;99.90;;;;;;8369889;28;20004;-73
2021/09/29 13:00:32;;;;;;;;;;;14.50;99.90;;;;;;8368863;28;20773;-72
2021/09/29 13:04:34;;;;;;;;;;;14.50;99.90;;;;;;8387405;28;19939;-73
2021/09/29 13:08:35;;;;;;;;;;;14.60;99.90;;;;;;8383444;28;20613;-72
2021/09/29 13:12:37;;;;;;;;;;;14.70;99.90;;;;;;8364808;28;19925;-73
2021/09/29 13:16:39;;;;;;;;;;;14.90;99.90;;;;;;8367067;28;20142;-73
2021/09/29 13:20:47;;;;;;;4.13;1.20;;;15.20;99.90;;;;;;8368618;28;19934;-73
2021/09/29 13:25:04;;;;;;;2.75;0.98;;;15.40;99.90;;;;;;8372789;28;20052;-73
2021/09/29 13:37:47;;;;;;;4.13;1.05;;;15.70;99.90;;;;;;8370302;28;20041;-73
2021/09/29 13:41:52;;;;;;;3.30;1.05;;;15.50;99.90;;;;;;8366231;28;20496;-73
2021/09/29 13:46:12;;;;;;;7.63;1.30;;;15.30;99.90;;;;;;8366132;28;20056;-73
2021/09/29 13:50:15;;;;;;;2.75;0.90;;;15.20;99.90;;;;;;8374722;28;20584;-73
2021/09/29 13:54:20;;;;;;;4.40;1.17;;;15.30;99.90;;;;;;8373059;28;20467;-74
2021/09/29 13:58:37;;;;;;;4.32;0.93;;;15.50;99.90;;;;;;8366733;28;20041;-74
2021/09/29 14:37:00;;;;;;;;;;;15.10;99.90;;;;;;8366478;28;19925;-73
2021/09/29 14:41:02;;;;;;;;;;;15.20;99.90;;;;;;8365760;28;19928;-73
2021/09/29 14:45:04;;;;;;;;;;;15.30;99.90;;;;;;8360606;28;19921;-73
2021/09/29 14:49:05;;;;;;;;;;;15.30;99.90;;;;;;8362008;28;19966;-73
2021/09/29 14:53:07;;;;;;;;;;;15.40;99.90;;;;;;8366522;28;19921;-73
2021/09/29 14:57:12;;;;;;;;;;;15.50;99.90;;;;;;8367047;28;20061;-73
2021/09/29 15:01:14;;;;;;;;;;;15.50;99.90;;;;;;8366677;28;19928;-73
2021/09/29 15:05:16;;;;;;;;;;;15.30;99.90;;;;;;8368825;28;19920;-73
2021/09/29 15:09:18;;;;;;;;;;;15.10;99.90;;;;;;8361603;28;19924;-73
2021/09/29 15:13:26;;;;;;;;;;;14.90;99.90;;;;;;8365017;28;19940;-73
2021/09/29 15:17:40;;;;;;;;;;;14.70;99.90;;;;;;8365431;28;19924;-73
2021/09/29 15:55:57;;;;;;;;;;;13.00;99.90;;;;;;8368095;28;19947;-73
2021/09/29 16:00:09;;;;;;;;;;;13.00;99.90;;;;;;8361352;28;20265;-72
2021/09/29 16:17:14;;;;;;;;;;;12.70;99.90;;;;;;8371463;28;20446;-73
2021/09/29 16:34:22;;;;;;;;;;;12.40;99.90;;;;;;8371184;28;19924;-73
2021/09/29 16:38:24;;;;;;;;;;;12.30;99.90;;;;;;8370078;28;19932;-73
2021/09/29 16:42:26;;;;;;;;;;;12.30;99.90;;;;;;8372346;28;19983;-73
2021/09/29 16:46:32;;;;;;;;;;;12.20;99.90;;;;;;8385654;28;19925;-73
2021/09/29 16:50:45;;;;;;;;;;;12.20;99.90;;;;;;8386596;28;20396;-73
2021/09/29 16:54:47;;;;;;;;;;;12.20;99.90;;;;;;8370727;28;20338;-72
2021/09/29 16:58:57;;;;;;;;;;;12.30;99.90;;;;;;8370790;28;19936;-72
2021/09/29 17:03:23;;;;;;;;;;;12.30;99.90;;;;;;8369863;28;19942;-72
2021/09/29 17:07:25;;;;;;;;;;;12.30;99.90;;;;;;8366888;28;20376;-73
2021/09/29 17:11:27;;;;;;;;;;;12.30;99.90;;;;;;8370009;28;19924;-73
2021/09/29 17:15:29;;;;;;;;;;;12.30;99.90;;;;;;8375398;28;19933;-73
2021/09/29 17:19:31;;;;;;;;;;;12.10;99.90;;;;;;8383048;28;20020;-73
2021/09/29 17:23:34;;;;;;;;;;;12.10;99.90;;;;;;8385666;28;19928;-72
2021/09/29 17:27:36;;;;;;;;;;;12.10;99.90;;;;;;8363059;28;20295;-72
2021/09/29 17:40:24;;;;;;;;;;;12.10;99.90;;;;;;8370143;28;19944;-72
2021/09/29 17:52:51;;;;;;;;;;;12.00;99.90;;;;;;8368251;28;20008;-73
2021/09/29 17:56:53;;;;;;;;;;;11.90;99.90;;;;;;8368190;28;19925;-73
2021/09/29 18:00:55;;;;;;;;;;;11.90;99.90;;;;;;8366352;28;19956;-73
2021/09/29 18:04:57;;;;;;;;;;;12.00;99.90;;;;;;8366504;28;19929;-73
2021/09/29 18:08:59;;;;;;;;;;;11.90;99.90;;;;;;8364009;28;19928;-73
2021/09/29 18:13:03;;;;;;;;;;;11.90;99.90;;;;;;8368146;28;19959;-72
2021/09/29 18:17:05;;;;;;;;;;;11.90;99.90;;;;;;8367744;28;19925;-73
2021/09/29 18:21:07;;;;;;;;;;;11.80;99.90;;;;;;8356688;28;20338;-72
2021/09/29 18:25:09;;;;;;;;;;;11.70;99.90;;;;;;8386187;28;19924;-73
2021/09/29 18:29:27;;;;;;;;;;;11.60;99.90;;;;;;8363182;28;20004;-73
2021/09/29 18:33:28;;;;;;;;;;;11.60;99.90;;;;;;8369342;28;20008;-72
2021/09/29 18:37:30;;;;;;;;;;;11.60;99.90;;;;;;8363800;28;19980;-72
2021/09/29 18:41:43;;;;;;;;;;;11.70;99.90;;;;;;8367189;28;20328;-72
2021/09/29 18:45:45;;;;;;;;;;;11.80;99.90;;;;;;8363166;28;19931;-74
2021/09/29 18:49:48;;;;;;;;;;;11.80;99.90;;;;;;8364234;28;20027;-73
2021/09/29 18:54:02;;;;;;;;;;;11.90;99.90;;;;;;8367462;28;19925;-73
2021/09/29 19:10:47;;;;;;;;;;;11.70;99.90;;;;;;8299658;28;19932;-72
2021/09/29 19:14:48;;;;;;;;;;;11.60;99.90;;;;;;8301083;28;19926;-72
2021/09/29 19:18:50;;;;;;;;;;;11.60;99.90;;;;;;8297413;28;19930;-72
2021/09/29 19:22:52;;;;;;;;;;;11.60;99.90;;;;;;8294446;28;19933;-71
2021/09/29 19:26:55;;;;;;;;;;;11.50;99.90;;;;;;8300375;28;19925;-72
2021/09/29 19:30:58;;;;;;;;;;;11.50;99.90;;;;;;8301179;28;19926;-72
2021/09/29 19:35:01;;;;;;;;;;;11.50;99.90;;;;;;8332148;28;19929;-73
2021/09/29 19:39:05;;;;;;;;;;;11.50;99.90;;;;;;8302186;28;19936;-72
2021/09/29 19:43:07;;;;;;;;;;;11.60;99.90;;;;;;8304076;28;20340;-73
2021/09/29 19:47:31;;;;;;;;;;;11.60;99.90;;;;;;8312552;28;19930;-73
2021/09/29 19:52:03;;;;;;;;;;;11.70;99.90;;;;;;8307030;28;19933;-73
2021/09/29 20:09:05;;;;;;;7.78;1.63;;;11.10;99.90;;;;;;8343939;28;20075;-72
2021/09/29 20:13:06;;;;;;;8.40;1.85;;;11.00;99.90;;;;;;8353300;28;20059;-73
2021/09/29 20:17:11;;;;;;;4.65;1.25;;;11.00;99.90;;;;;;8372385;28;20101;-72
2021/09/29 20:21:13;;;;;;;5.45;1.60;;;11.00;99.90;;;;;;8363973;28;20056;-73
2021/09/29 20:25:17;;;;;;;3.42;1.33;;;11.00;99.90;;;;;;8371607;28;20052;-73
2021/09/29 20:29:19;;;;;;;2.80;1.10;;;11.00;99.90;;;;;;8353118;28;20120;-73
2021/09/29 20:46:23;;;;;;;5.13;1.50;;;11.10;99.90;;;;;;8363893;28;20057;-73
2021/09/29 20:50:26;;;;;;;4.20;1.35;;;10.90;99.90;;;;;;8367621;28;20059;-73
2021/09/29 20:54:28;;;;;;;6.65;2.20;;;10.80;99.90;;;;;;8369755;28;20048;-74
2021/09/29 20:58:30;;;;;;;6.70;2.15;;;10.80;99.90;;;;;;8370389;28;20091;-72
2021/09/29 21:02:33;;;;;;;4.03;1.25;;;10.70;99.90;;;;;;8376703;28;20048;-72
2021/09/29 21:06:35;;;;;;;3.38;1.10;;;10.70;99.90;;;;;;8389473;28;20400;-72
2021/09/29 21:10:43;;;;;;;5.53;2.17;;;10.80;99.90;;;;;;8390754;28;20049;-72
2021/09/29 21:15:23;;;;;;;5.05;1.10;;;10.80;99.90;;;;;;8392593;28;20180;-73
2021/09/29 21:19:22;;;;;;;2.73;0.97;;;10.80;99.90;;;;;;8389586;28;20133;-73
2021/09/29 21:23:23;;;;;;;3.08;1.10;;;10.80;99.90;;;;;;8386792;28;20079;-72
2021/09/29 21:27:26;;;;;;;2.90;0.90;;;10.80;99.90;;;;;;8390696;28;20053;-73
2021/09/29 21:31:28;;;;;;;2.50;0.90;;;10.80;99.90;;;;;;8394387;28;20052;-73
2021/09/29 21:35:31;;;;;;;1.75;0.90;;;10.80;99.90;;;;;;8373932;28;20506;-74
2021/09/29 21:44:39;;;;;;;3.20;0.90;;;11.00;99.90;;;;;;8308111;28;20059;-73
2021/09/29 22:19:08;;;;;;;5.45;1.50;;;10.80;99.90;;;;;;8384863;28;20098;-72
2021/09/29 23:06:27;;;;;;;3.80;1.10;;;10.80;99.90;;;;;;8388957;28;20049;-73
2021/09/29 23:22:17;;;;;;;4.20;1.17;;;10.90;99.90;;;;;;8390188;28;20052;-73
2021/09/29 23:36:26;;;;;;;2.80;0.85;;;10.80;99.90;;;;;;8401458;28;20051;-73
2021/09/29 23:40:29;;;;;;;4.78;0.98;;;10.80;99.90;;;;;;8401407;28;20052;-73
2021/09/29 23:44:31;;;;;;;3.13;0.90;;;10.80;99.90;;;;;;8401500;28;20051;-72
2021/09/29 23:48:32;;;;;;;3.33;1.10;;;10.80;99.90;;;;;;8398697;28;20044;-73
2021/09/29 23:52:35;;;;;;;3.58;1.30;;;10.80;99.90;;;;;;8396026;28;20383;-73
2021/09/29 23:56:37;;;;;;;4.30;1.20;;;10.80;99.90;;;;;;8383384;28;20040;-73
